createdAt,value
2023-01-21T00:08:05.537Z,0
2023-01-21T00:13:25.331Z,0
2023-01-21T00:18:45.131Z,0
2023-01-21T00:24:04.547Z,0
2023-01-21T00:29:23.801Z,0
2023-01-21T00:34:43.347Z,0
2023-01-21T00:40:02.350Z,0
2023-01-21T00:45:22.102Z,0
2023-01-21T00:50:41.773Z,0
2023-01-21T00:56:00.673Z,0
2023-01-21T01:01:20.178Z,0
2023-01-21T01:06:39.472Z,0
2023-01-21T01:11:58.634Z,0
2023-01-21T01:17:17.058Z,0
2023-01-21T01:22:35.934Z,0
2023-01-21T01:27:55.373Z,0
2023-01-21T01:33:14.934Z,0
2023-01-21T01:38:34.707Z,0
2023-01-21T01:43:53.770Z,0
2023-01-21T01:54:33.165Z,0
2023-01-21T01:59:52.889Z,0
2023-01-21T02:10:40.181Z,0
2023-01-21T02:15:50.657Z,0
2023-01-21T02:21:10.050Z,0
2023-01-21T02:26:28.829Z,0
2023-01-21T02:31:48.175Z,0
2023-01-21T02:37:07.292Z,0
2023-01-21T02:42:26.635Z,0
2023-01-21T02:53:04.771Z,0
2023-01-21T02:58:24.449Z,0
2023-01-21T03:03:43.956Z,0
2023-01-21T03:09:03.423Z,0
2023-01-21T03:14:22.978Z,0
2023-01-21T03:19:42.713Z,0
2023-01-21T03:25:02.293Z,0
2023-01-21T03:35:41.050Z,0
2023-01-21T03:41:00.850Z,0
2023-01-21T03:46:19.446Z,0
2023-01-21T03:51:38.997Z,0
2023-01-21T03:56:58.749Z,0
2023-01-21T04:02:17.921Z,0
2023-01-21T04:07:37.688Z,0
2023-01-21T04:18:16.238Z,0
2023-01-21T04:23:35.893Z,0
2023-01-21T04:28:54.754Z,0
2023-01-21T04:34:14.172Z,0
2023-01-21T04:44:52.656Z,0
2023-01-21T04:50:12.372Z,0
2023-01-21T05:00:51.044Z,0
2023-01-21T05:06:10.178Z,0
2023-01-21T05:11:29.855Z,0
2023-01-21T05:16:49.509Z,0
2023-01-21T05:22:08.953Z,0
2023-01-21T05:27:28.531Z,0
2023-01-21T05:32:47.608Z,0
2023-01-21T05:43:26.253Z,0
2023-01-21T05:48:45.517Z,0
2023-01-21T05:54:05.082Z,0
2023-01-21T05:59:24.514Z,0
2023-01-21T06:04:43.369Z,0
2023-01-21T06:10:03.133Z,0
2023-01-21T06:15:22.625Z,0
2023-01-21T06:21:06.771Z,0
2023-01-21T06:26:27.308Z,0
2023-01-21T06:33:01.305Z,0
2023-01-21T06:37:06.102Z,0
2023-01-21T06:42:25.476Z,0
2023-01-21T06:47:44.848Z,0
2023-01-21T06:58:22.522Z,0.0036
2023-01-21T07:03:41.836Z,0.006
2023-01-21T07:09:00.865Z,0.0185
2023-01-21T07:14:20.123Z,0.0282
2023-01-21T07:19:39.953Z,0.0329
2023-01-21T07:24:58.916Z,0.0314
2023-01-21T07:35:37.600Z,0.0442
2023-01-21T07:40:56.813Z,0.0444
2023-01-21T07:46:16.444Z,0.0476
2023-01-21T07:51:35.687Z,0.0563
2023-01-21T07:56:55.075Z,0.0589
2023-01-21T08:02:14.121Z,0.068
2023-01-21T08:07:33.403Z,0.0784
2023-01-21T08:18:11.611Z,0.0811
2023-01-21T08:23:31.062Z,0.0887
2023-01-21T08:28:50.422Z,0.0948
2023-01-21T08:34:09.753Z,0.097
2023-01-21T08:39:29.338Z,0.0986
2023-01-21T08:44:48.236Z,0.1042
2023-01-21T08:50:07.015Z,0.1147
2023-01-21T09:00:45.151Z,0.114
2023-01-21T09:06:04.773Z,0.1209
2023-01-21T09:11:23.966Z,0.1301
2023-01-21T09:16:43.786Z,0.1316
2023-01-21T09:22:02.647Z,0.1363
2023-01-21T09:27:21.583Z,0.143
2023-01-21T09:32:41.181Z,0.1408
2023-01-21T09:38:00.593Z,0.1537
2023-01-21T09:43:19.447Z,0.1479
2023-01-21T09:48:38.786Z,0.1533
2023-01-21T09:53:57.665Z,0.1455
2023-01-21T09:59:16.570Z,0.1444
2023-01-21T10:04:35.595Z,0.1517
2023-01-21T10:09:54.461Z,0.1665
2023-01-21T10:15:14.208Z,0.1904
2023-01-21T10:25:52.609Z,0.2375
2023-01-21T10:31:13.139Z,0.2329
2023-01-21T10:36:34.254Z,0.2425
2023-01-21T10:41:51.760Z,0.2385
2023-01-21T10:47:11.547Z,0.2286
2023-01-21T10:52:30.422Z,0.2042
2023-01-21T10:57:49.617Z,0.1673
2023-01-21T11:03:09.248Z,0.1528
2023-01-21T11:08:28.897Z,0.139
2023-01-21T11:13:48.218Z,0.1177
2023-01-21T11:24:26.252Z,0.1059
2023-01-21T11:29:45.292Z,0.1054
2023-01-21T11:35:04.426Z,0.135
2023-01-21T11:40:23.775Z,0.1249
2023-01-21T11:51:02.245Z,0.1321
2023-01-21T11:56:21.890Z,0.1358
2023-01-21T12:07:01.274Z,0.1587
2023-01-21T12:12:19.660Z,0.1749
2023-01-21T12:17:40.116Z,0.1905
2023-01-21T12:22:59.256Z,0.1787
2023-01-21T12:28:18.609Z,0.1585
2023-01-21T12:33:38.083Z,0.1277
2023-01-21T12:38:57.008Z,0.1269
2023-01-21T12:50:50.197Z,0.1856
2023-01-21T12:54:54.746Z,0.1796
2023-01-21T13:00:14.059Z,0.1149
2023-01-21T13:06:54.076Z,0.1181
2023-01-21T13:10:53.831Z,0.146
2023-01-21T13:16:12.463Z,0.1236
2023-01-21T13:21:31.569Z,0.1388
2023-01-21T13:32:10.459Z,0.1388
2023-01-21T13:37:29.614Z,0.1599
2023-01-21T13:42:48.479Z,0.156
2023-01-21T13:48:07.871Z,0.1542
2023-01-21T13:53:26.960Z,0.187
2023-01-21T14:09:25.970Z,0.1046
2023-01-21T14:14:45.028Z,0.0861
2023-01-21T14:20:02.795Z,0.0747
2023-01-21T14:25:21.689Z,0.0775
2023-01-21T14:30:40.587Z,0.0669
2023-01-21T14:36:00.088Z,0.0622
2023-01-21T14:41:19.779Z,0.0649
2023-01-21T14:51:58.590Z,0.0501
2023-01-21T14:57:18.875Z,0.0458
2023-01-21T15:02:37.107Z,0.0408
2023-01-21T15:07:56.199Z,0.0454
2023-01-21T15:13:15.820Z,0.0504
2023-01-21T15:18:34.987Z,0.0382
2023-01-21T15:34:33.289Z,0.0329
2023-01-21T15:39:52.707Z,0.029
2023-01-21T15:45:12.155Z,0.0298
2023-01-21T15:50:31.860Z,0.0225
2023-01-21T15:55:51.692Z,0.0155
2023-01-21T16:01:10.843Z,0.0078
2023-01-21T16:06:30.535Z,0.0012
2023-01-21T16:17:08.635Z,0
2023-01-21T16:22:27.996Z,0
2023-01-21T16:27:46.986Z,0
2023-01-21T16:33:06.428Z,0
2023-01-21T16:38:25.552Z,0
2023-01-21T16:43:45.233Z,0
2023-01-21T16:49:04.474Z,0
2023-01-21T16:59:42.267Z,0
2023-01-21T17:05:02.039Z,0
2023-01-21T17:10:21.390Z,0
2023-01-21T17:15:40.730Z,0
2023-01-21T17:20:59.593Z,0
2023-01-21T17:26:18.299Z,0
2023-01-21T17:31:37.616Z,0
2023-01-21T17:42:16.139Z,0
2023-01-21T17:47:43.991Z,0
2023-01-21T17:58:15.503Z,0
2023-01-21T18:03:34.906Z,0
2023-01-21T18:08:53.699Z,0
2023-01-21T18:14:13.250Z,0
2023-01-21T18:19:32.225Z,0
2023-01-21T18:24:51.644Z,0
2023-01-21T18:30:11.466Z,0
2023-01-21T18:40:51.067Z,0
2023-01-21T18:46:10.556Z,0
2023-01-21T18:51:29.451Z,0
2023-01-21T18:56:48.373Z,0
2023-01-21T19:02:07.451Z,0
2023-01-21T19:07:26.719Z,0
2023-01-21T19:12:45.639Z,0
2023-01-21T19:18:04.704Z,0
2023-01-21T19:23:23.565Z,0
2023-01-21T19:28:43.247Z,0
2023-01-21T19:34:02.605Z,0
2023-01-21T19:39:21.480Z,0
2023-01-21T19:44:40.847Z,0
2023-01-21T19:50:00.472Z,0
2023-01-21T19:55:19.349Z,0
2023-01-21T20:01:53.540Z,0
2023-01-21T20:05:58.047Z,0
2023-01-21T20:11:16.946Z,0
2023-01-21T20:16:36.638Z,0
2023-01-21T20:23:10.813Z,0
2023-01-21T20:32:34.172Z,0
2023-01-21T20:37:53.589Z,0
2023-01-21T20:43:12.847Z,0
2023-01-21T20:48:32.290Z,0
2023-01-21T20:59:10.823Z,0
2023-01-21T21:04:30.307Z,0
2023-01-21T21:09:49.240Z,0
2023-01-21T21:15:08.718Z,0
2023-01-21T21:20:28.091Z,0
2023-01-21T21:25:47.637Z,0
2023-01-21T21:31:07.498Z,0
2023-01-21T21:41:45.727Z,0
2023-01-21T21:47:04.668Z,0
2023-01-21T21:52:23.885Z,0
2023-01-21T21:57:43.739Z,0
2023-01-21T22:03:03.154Z,0
2023-01-21T22:08:22.467Z,0
2023-01-21T22:13:41.858Z,0
2023-01-21T22:19:00.975Z,0
2023-01-21T22:24:20.185Z,0
2023-01-21T22:29:39.595Z,0
2023-01-21T22:34:59.043Z,0
2023-01-21T22:40:18.347Z,0
2023-01-21T22:50:56.400Z,0
2023-01-21T22:56:15.447Z,0
2023-01-21T23:06:54.385Z,0
2023-01-21T23:12:13.253Z,0
2023-01-21T23:17:32.980Z,0
2023-01-21T23:22:52.280Z,0
2023-01-21T23:28:11.383Z,0
2023-01-21T23:33:30.944Z,0
2023-01-21T23:38:50.650Z,0
2023-01-21T23:49:29.731Z,0
2023-01-21T23:54:49.386Z,0
